sensor_id;sensor_type;location;lat;lon;timestamp;P1;durP1;ratioP1;P2;durP2;ratioP2
40781;SDS011;26493;51.938;7.626;2023-08-07T00:01:58;1.35;;;0.73;;
40781;SDS011;26493;51.938;7.626;2023-08-07T00:04:24;0.80;;;0.50;;
40781;SDS011;26493;51.938;7.626;2023-08-07T00:06:50;0.80;;;0.55;;
40781;SDS011;26493;51.938;7.626;2023-08-07T00:09:16;0.80;;;0.50;;
40781;SDS011;26493;51.938;7.626;2023-08-07T00:11:42;2.78;;;2.47;;
40781;SDS011;26493;51.938;7.626;2023-08-07T00:14:08;0.90;;;0.60;;
40781;SDS011;26493;51.938;7.626;2023-08-07T00:16:34;0.65;;;0.40;;
40781;SDS011;26493;51.938;7.626;2023-08-07T00:19:01;0.70;;;0.50;;
40781;SDS011;26493;51.938;7.626;2023-08-07T00:21:27;0.60;;;0.40;;
40781;SDS011;26493;51.938;7.626;2023-08-07T00:23:53;0.70;;;0.40;;
40781;SDS011;26493;51.938;7.626;2023-08-07T00:26:20;1.65;;;0.70;;
40781;SDS011;26493;51.938;7.626;2023-08-07T00:28:46;0.70;;;0.40;;
40781;SDS011;26493;51.938;7.626;2023-08-07T00:31:12;0.68;;;0.40;;
40781;SDS011;26493;51.938;7.626;2023-08-07T00:33:38;0.70;;;0.50;;
40781;SDS011;26493;51.938;7.626;2023-08-07T00:36:04;0.70;;;0.50;;
40781;SDS011;26493;51.938;7.626;2023-08-07T00:38:30;1.65;;;0.90;;
40781;SDS011;26493;51.938;7.626;2023-08-07T00:40:56;0.80;;;0.50;;
40781;SDS011;26493;51.938;7.626;2023-08-07T00:43:24;0.80;;;0.50;;
40781;SDS011;26493;51.938;7.626;2023-08-07T00:45:50;0.80;;;0.50;;
40781;SDS011;26493;51.938;7.626;2023-08-07T00:48:16;0.90;;;0.60;;
40781;SDS011;26493;51.938;7.626;2023-08-07T00:50:42;0.80;;;0.50;;
40781;SDS011;26493;51.938;7.626;2023-08-07T00:53:10;0.80;;;0.60;;
40781;SDS011;26493;51.938;7.626;2023-08-07T00:55:36;2.45;;;1.30;;
40781;SDS011;26493;51.938;7.626;2023-08-07T00:58:02;0.80;;;0.50;;
40781;SDS011;26493;51.938;7.626;2023-08-07T01:00:28;1.85;;;0.85;;
40781;SDS011;26493;51.938;7.626;2023-08-07T01:02:55;0.73;;;0.50;;
40781;SDS011;26493;51.938;7.626;2023-08-07T01:05:23;0.88;;;0.60;;
40781;SDS011;26493;51.938;7.626;2023-08-07T01:07:51;0.73;;;0.50;;
40781;SDS011;26493;51.938;7.626;2023-08-07T01:10:20;0.80;;;0.50;;
40781;SDS011;26493;51.938;7.626;2023-08-07T01:12:48;0.80;;;0.60;;
40781;SDS011;26493;51.938;7.626;2023-08-07T01:15:22;0.70;;;0.50;;
40781;SDS011;26493;51.938;7.626;2023-08-07T01:17:50;0.80;;;0.50;;
40781;SDS011;26493;51.938;7.626;2023-08-07T01:20:18;0.80;;;0.50;;
40781;SDS011;26493;51.938;7.626;2023-08-07T01:22:44;1.67;;;0.80;;
40781;SDS011;26493;51.938;7.626;2023-08-07T01:25:10;0.77;;;0.50;;
40781;SDS011;26493;51.938;7.626;2023-08-07T01:27:36;2.72;;;1.70;;
40781;SDS011;26493;51.938;7.626;2023-08-07T01:35:20;1.20;;;0.70;;
40781;SDS011;26493;51.938;7.626;2023-08-07T01:37:50;1.80;;;1.10;;
40781;SDS011;26493;51.938;7.626;2023-08-07T01:40:17;2.90;;;1.95;;
40781;SDS011;26493;51.938;7.626;2023-08-07T01:42:44;2.33;;;1.48;;
40781;SDS011;26493;51.938;7.626;2023-08-07T01:45:10;1.50;;;1.00;;
40781;SDS011;26493;51.938;7.626;2023-08-07T01:47:36;2.78;;;1.60;;
40781;SDS011;26493;51.938;7.626;2023-08-07T01:50:02;2.40;;;1.33;;
40781;SDS011;26493;51.938;7.626;2023-08-07T01:52:28;1.80;;;1.10;;
40781;SDS011;26493;51.938;7.626;2023-08-07T01:54:54;1.80;;;1.10;;
40781;SDS011;26493;51.938;7.626;2023-08-07T01:57:20;1.80;;;1.10;;
40781;SDS011;26493;51.938;7.626;2023-08-07T01:59:46;4.15;;;2.03;;
40781;SDS011;26493;51.938;7.626;2023-08-07T02:02:12;2.00;;;1.20;;
40781;SDS011;26493;51.938;7.626;2023-08-07T02:04:37;3.28;;;1.83;;
40781;SDS011;26493;51.938;7.626;2023-08-07T02:07:04;6.22;;;3.53;;
40781;SDS011;26493;51.938;7.626;2023-08-07T02:09:30;12.25;;;7.80;;
40781;SDS011;26493;51.938;7.626;2023-08-07T02:11:56;9.25;;;5.50;;
40781;SDS011;26493;51.938;7.626;2023-08-07T02:14:22;11.10;;;6.60;;
40781;SDS011;26493;51.938;7.626;2023-08-07T02:16:48;9.50;;;5.60;;
40781;SDS011;26493;51.938;7.626;2023-08-07T02:19:13;9.43;;;5.60;;
40781;SDS011;26493;51.938;7.626;2023-08-07T02:21:39;8.73;;;5.20;;
40781;SDS011;26493;51.938;7.626;2023-08-07T02:24:05;8.52;;;5.10;;
40781;SDS011;26493;51.938;7.626;2023-08-07T02:26:31;7.40;;;4.40;;
40781;SDS011;26493;51.938;7.626;2023-08-07T02:28:57;8.00;;;4.78;;
40781;SDS011;26493;51.938;7.626;2023-08-07T02:31:23;7.65;;;4.50;;
40781;SDS011;26493;51.938;7.626;2023-08-07T02:33:49;7.90;;;4.70;;
40781;SDS011;26493;51.938;7.626;2023-08-07T02:36:15;8.80;;;5.22;;
40781;SDS011;26493;51.938;7.626;2023-08-07T02:38:41;8.18;;;5.00;;
40781;SDS011;26493;51.938;7.626;2023-08-07T02:41:07;8.10;;;4.97;;
40781;SDS011;26493;51.938;7.626;2023-08-07T02:43:33;7.78;;;4.60;;
40781;SDS011;26493;51.938;7.626;2023-08-07T02:45:59;7.90;;;4.70;;
40781;SDS011;26493;51.938;7.626;2023-08-07T02:48:25;7.43;;;4.40;;
40781;SDS011;26493;51.938;7.626;2023-08-07T02:50:51;7.90;;;4.70;;
40781;SDS011;26493;51.938;7.626;2023-08-07T02:53:18;7.45;;;4.50;;
40781;SDS011;26493;51.938;7.626;2023-08-07T02:55:44;7.50;;;4.50;;
40781;SDS011;26493;51.938;7.626;2023-08-07T02:58:10;7.63;;;4.55;;
40781;SDS011;26493;51.938;7.626;2023-08-07T03:00:36;8.15;;;4.90;;
40781;SDS011;26493;51.938;7.626;2023-08-07T03:03:02;7.88;;;4.70;;
40781;SDS011;26493;51.938;7.626;2023-08-07T03:05:29;12.45;;;7.40;;
40781;SDS011;26493;51.938;7.626;2023-08-07T03:07:55;9.80;;;5.78;;
40781;SDS011;26493;51.938;7.626;2023-08-07T03:10:21;10.50;;;6.20;;
40781;SDS011;26493;51.938;7.626;2023-08-07T03:12:47;11.95;;;7.70;;
40781;SDS011;26493;51.938;7.626;2023-08-07T03:15:13;10.70;;;6.35;;
40781;SDS011;26493;51.938;7.626;2023-08-07T03:17:39;10.77;;;6.32;;
40781;SDS011;26493;51.938;7.626;2023-08-07T03:20:05;9.27;;;5.55;;
40781;SDS011;26493;51.938;7.626;2023-08-07T03:22:31;10.82;;;6.43;;
40781;SDS011;26493;51.938;7.626;2023-08-07T03:24:57;10.00;;;5.90;;
40781;SDS011;26493;51.938;7.626;2023-08-07T03:27:23;10.10;;;6.00;;
40781;SDS011;26493;51.938;7.626;2023-08-07T03:29:49;9.85;;;5.88;;
40781;SDS011;26493;51.938;7.626;2023-08-07T03:32:15;9.65;;;5.78;;
40781;SDS011;26493;51.938;7.626;2023-08-07T03:34:41;9.82;;;5.93;;
40781;SDS011;26493;51.938;7.626;2023-08-07T03:37:07;9.00;;;5.40;;
40781;SDS011;26493;51.938;7.626;2023-08-07T03:39:33;8.80;;;5.30;;
40781;SDS011;26493;51.938;7.626;2023-08-07T03:41:59;8.93;;;5.38;;
40781;SDS011;26493;51.938;7.626;2023-08-07T03:44:25;10.45;;;6.20;;
40781;SDS011;26493;51.938;7.626;2023-08-07T03:46:51;9.43;;;5.65;;
40781;SDS011;26493;51.938;7.626;2023-08-07T03:49:17;8.30;;;4.97;;
40781;SDS011;26493;51.938;7.626;2023-08-07T03:51:43;8.77;;;5.28;;
40781;SDS011;26493;51.938;7.626;2023-08-07T03:54:09;10.77;;;6.40;;
40781;SDS011;26493;51.938;7.626;2023-08-07T03:56:35;9.10;;;5.35;;
40781;SDS011;26493;51.938;7.626;2023-08-07T03:59:02;12.05;;;7.13;;
40781;SDS011;26493;51.938;7.626;2023-08-07T04:01:29;12.18;;;7.20;;
40781;SDS011;26493;51.938;7.626;2023-08-07T04:03:55;11.07;;;6.53;;
40781;SDS011;26493;51.938;7.626;2023-08-07T04:06:21;12.50;;;7.40;;
40781;SDS011;26493;51.938;7.626;2023-08-07T04:08:47;10.90;;;6.40;;
40781;SDS011;26493;51.938;7.626;2023-08-07T04:11:13;9.80;;;5.80;;
40781;SDS011;26493;51.938;7.626;2023-08-07T04:13:39;10.00;;;5.97;;
40781;SDS011;26493;51.938;7.626;2023-08-07T04:16:05;9.82;;;5.82;;
40781;SDS011;26493;51.938;7.626;2023-08-07T04:18:32;9.10;;;5.45;;
40781;SDS011;26493;51.938;7.626;2023-08-07T04:20:58;10.38;;;6.10;;
40781;SDS011;26493;51.938;7.626;2023-08-07T04:23:24;9.10;;;5.40;;
40781;SDS011;26493;51.938;7.626;2023-08-07T04:25:50;9.50;;;5.60;;
40781;SDS011;26493;51.938;7.626;2023-08-07T04:28:17;8.93;;;5.30;;
40781;SDS011;26493;51.938;7.626;2023-08-07T04:30:43;9.00;;;5.40;;
40781;SDS011;26493;51.938;7.626;2023-08-07T04:33:09;9.05;;;5.35;;
40781;SDS011;26493;51.938;7.626;2023-08-07T04:35:35;8.98;;;5.53;;
40781;SDS011;26493;51.938;7.626;2023-08-07T04:38:02;9.13;;;5.53;;
40781;SDS011;26493;51.938;7.626;2023-08-07T04:40:28;8.60;;;5.10;;
40781;SDS011;26493;51.938;7.626;2023-08-07T04:42:54;9.00;;;5.35;;
40781;SDS011;26493;51.938;7.626;2023-08-07T04:45:20;8.10;;;4.80;;
40781;SDS011;26493;51.938;7.626;2023-08-07T04:47:46;9.02;;;5.32;;
40781;SDS011;26493;51.938;7.626;2023-08-07T04:50:12;8.18;;;5.05;;
40781;SDS011;26493;51.938;7.626;2023-08-07T04:52:38;8.18;;;4.90;;
40781;SDS011;26493;51.938;7.626;2023-08-07T04:55:04;7.50;;;4.50;;
40781;SDS011;26493;51.938;7.626;2023-08-07T04:57:31;7.35;;;4.32;;
40781;SDS011;26493;51.938;7.626;2023-08-07T04:59:57;7.82;;;4.82;;
40781;SDS011;26493;51.938;7.626;2023-08-07T05:02:23;7.25;;;4.30;;
40781;SDS011;26493;51.938;7.626;2023-08-07T05:04:49;6.80;;;4.10;;
40781;SDS011;26493;51.938;7.626;2023-08-07T05:07:15;7.30;;;4.45;;
40781;SDS011;26493;51.938;7.626;2023-08-07T05:09:41;6.70;;;4.00;;
40781;SDS011;26493;51.938;7.626;2023-08-07T05:12:07;6.90;;;4.00;;
40781;SDS011;26493;51.938;7.626;2023-08-07T05:14:33;7.50;;;4.47;;
40781;SDS011;26493;51.938;7.626;2023-08-07T05:16:59;7.07;;;4.20;;
40781;SDS011;26493;51.938;7.626;2023-08-07T05:19:25;7.65;;;4.55;;
40781;SDS011;26493;51.938;7.626;2023-08-07T05:21:51;8.15;;;4.85;;
40781;SDS011;26493;51.938;7.626;2023-08-07T05:24:17;8.35;;;5.00;;
40781;SDS011;26493;51.938;7.626;2023-08-07T05:26:43;8.10;;;4.90;;
40781;SDS011;26493;51.938;7.626;2023-08-07T05:29:09;9.40;;;5.57;;
40781;SDS011;26493;51.938;7.626;2023-08-07T05:31:35;9.60;;;5.70;;
40781;SDS011;26493;51.938;7.626;2023-08-07T05:34:02;9.20;;;5.50;;
40781;SDS011;26493;51.938;7.626;2023-08-07T05:36:28;8.95;;;5.32;;
40781;SDS011;26493;51.938;7.626;2023-08-07T05:41:27;8.73;;;5.13;;
40781;SDS011;26493;51.938;7.626;2023-08-07T05:43:53;8.80;;;5.25;;
40781;SDS011;26493;51.938;7.626;2023-08-07T05:46:19;8.80;;;5.20;;
40781;SDS011;26493;51.938;7.626;2023-08-07T05:48:45;8.52;;;5.10;;
40781;SDS011;26493;51.938;7.626;2023-08-07T05:51:11;8.20;;;4.90;;
40781;SDS011;26493;51.938;7.626;2023-08-07T05:53:37;6.80;;;4.10;;
40781;SDS011;26493;51.938;7.626;2023-08-07T05:56:03;7.43;;;4.50;;
40781;SDS011;26493;51.938;7.626;2023-08-07T05:58:29;7.70;;;4.60;;
40781;SDS011;26493;51.938;7.626;2023-08-07T06:00:55;7.40;;;4.40;;
40781;SDS011;26493;51.938;7.626;2023-08-07T06:03:21;7.18;;;4.43;;
40781;SDS011;26493;51.938;7.626;2023-08-07T06:05:48;6.88;;;4.10;;
40781;SDS011;26493;51.938;7.626;2023-08-07T06:08:14;6.43;;;3.83;;
40781;SDS011;26493;51.938;7.626;2023-08-07T06:10:40;6.25;;;3.70;;
40781;SDS011;26493;51.938;7.626;2023-08-07T06:13:06;6.90;;;4.10;;
40781;SDS011;26493;51.938;7.626;2023-08-07T06:15:33;4.82;;;2.90;;
40781;SDS011;26493;51.938;7.626;2023-08-07T06:17:59;4.80;;;2.80;;
40781;SDS011;26493;51.938;7.626;2023-08-07T06:20:25;4.70;;;2.80;;
40781;SDS011;26493;51.938;7.626;2023-08-07T06:22:51;5.25;;;3.15;;
40781;SDS011;26493;51.938;7.626;2023-08-07T06:25:17;6.10;;;3.70;;
40781;SDS011;26493;51.938;7.626;2023-08-07T06:27:44;6.10;;;3.60;;
40781;SDS011;26493;51.938;7.626;2023-08-07T06:30:10;5.38;;;3.17;;
40781;SDS011;26493;51.938;7.626;2023-08-07T06:32:36;5.65;;;3.40;;
40781;SDS011;26493;51.938;7.626;2023-08-07T06:35:03;5.45;;;3.20;;
40781;SDS011;26493;51.938;7.626;2023-08-07T06:37:29;6.13;;;4.47;;
40781;SDS011;26493;51.938;7.626;2023-08-07T06:39:55;5.20;;;3.10;;
40781;SDS011;26493;51.938;7.626;2023-08-07T06:42:21;4.90;;;2.90;;
40781;SDS011;26493;51.938;7.626;2023-08-07T06:44:47;4.85;;;2.80;;
40781;SDS011;26493;51.938;7.626;2023-08-07T06:47:13;4.80;;;2.80;;
40781;SDS011;26493;51.938;7.626;2023-08-07T06:49:39;4.50;;;2.70;;
40781;SDS011;26493;51.938;7.626;2023-08-07T06:52:06;6.13;;;3.80;;
40781;SDS011;26493;51.938;7.626;2023-08-07T06:54:32;6.25;;;4.05;;
40781;SDS011;26493;51.938;7.626;2023-08-07T06:56:58;6.13;;;3.70;;
40781;SDS011;26493;51.938;7.626;2023-08-07T06:59:23;5.60;;;3.30;;
40781;SDS011;26493;51.938;7.626;2023-08-07T07:01:50;5.30;;;3.08;;
40781;SDS011;26493;51.938;7.626;2023-08-07T07:04:16;4.30;;;2.55;;
40781;SDS011;26493;51.938;7.626;2023-08-07T07:06:42;4.53;;;2.70;;
40781;SDS011;26493;51.938;7.626;2023-08-07T07:09:08;4.72;;;2.78;;
40781;SDS011;26493;51.938;7.626;2023-08-07T07:11:34;5.57;;;3.50;;
40781;SDS011;26493;51.938;7.626;2023-08-07T07:14:00;4.30;;;2.60;;
40781;SDS011;26493;51.938;7.626;2023-08-07T07:16:26;5.10;;;2.90;;
40781;SDS011;26493;51.938;7.626;2023-08-07T07:18:53;4.65;;;2.80;;
40781;SDS011;26493;51.938;7.626;2023-08-07T07:21:21;3.80;;;2.25;;
40781;SDS011;26493;51.938;7.626;2023-08-07T07:23:47;4.43;;;2.70;;
40781;SDS011;26493;51.938;7.626;2023-08-07T07:26:13;3.83;;;2.33;;
40781;SDS011;26493;51.938;7.626;2023-08-07T07:28:39;2.90;;;1.80;;
40781;SDS011;26493;51.938;7.626;2023-08-07T07:31:05;3.55;;;2.20;;
40781;SDS011;26493;51.938;7.626;2023-08-07T07:33:33;3.28;;;2.00;;
40781;SDS011;26493;51.938;7.626;2023-08-07T07:36:01;2.70;;;1.60;;
40781;SDS011;26493;51.938;7.626;2023-08-07T07:38:27;2.85;;;1.70;;
40781;SDS011;26493;51.938;7.626;2023-08-07T07:40:53;2.60;;;1.60;;
40781;SDS011;26493;51.938;7.626;2023-08-07T07:43:21;3.80;;;2.22;;
40781;SDS011;26493;51.938;7.626;2023-08-07T07:45:48;4.22;;;2.45;;
40781;SDS011;26493;51.938;7.626;2023-08-07T07:48:14;3.50;;;2.10;;
40781;SDS011;26493;51.938;7.626;2023-08-07T07:50:40;3.80;;;2.25;;
40781;SDS011;26493;51.938;7.626;2023-08-07T07:53:06;3.40;;;2.08;;
40781;SDS011;26493;51.938;7.626;2023-08-07T07:55:32;5.90;;;3.50;;
40781;SDS011;26493;51.938;7.626;2023-08-07T07:57:59;6.55;;;3.85;;
40781;SDS011;26493;51.938;7.626;2023-08-07T08:00:25;11.85;;;7.00;;
40781;SDS011;26493;51.938;7.626;2023-08-07T08:02:52;13.57;;;8.88;;
40781;SDS011;26493;51.938;7.626;2023-08-07T08:05:18;13.73;;;9.25;;
40781;SDS011;26493;51.938;7.626;2023-08-07T08:07:44;14.45;;;11.38;;
40781;SDS011;26493;51.938;7.626;2023-08-07T08:10:10;14.90;;;12.90;;
40781;SDS011;26493;51.938;7.626;2023-08-07T08:12:38;14.60;;;11.50;;
40781;SDS011;26493;51.938;7.626;2023-08-07T08:15:04;15.43;;;13.27;;
40781;SDS011;26493;51.938;7.626;2023-08-07T08:17:30;14.60;;;11.85;;
40781;SDS011;26493;51.938;7.626;2023-08-07T08:19:57;14.60;;;11.75;;
40781;SDS011;26493;51.938;7.626;2023-08-07T08:22:23;14.60;;;11.15;;
40781;SDS011;26493;51.938;7.626;2023-08-07T08:24:49;14.20;;;10.48;;
40781;SDS011;26493;51.938;7.626;2023-08-07T08:27:15;13.95;;;9.90;;
40781;SDS011;26493;51.938;7.626;2023-08-07T08:29:42;14.20;;;10.50;;
40781;SDS011;26493;51.938;7.626;2023-08-07T08:32:09;14.23;;;10.38;;
40781;SDS011;26493;51.938;7.626;2023-08-07T08:34:35;14.30;;;11.00;;
40781;SDS011;26493;51.938;7.626;2023-08-07T08:37:01;14.30;;;10.68;;
40781;SDS011;26493;51.938;7.626;2023-08-07T08:39:30;13.77;;;9.48;;
40781;SDS011;26493;51.938;7.626;2023-08-07T08:41:57;13.95;;;9.80;;
40781;SDS011;26493;51.938;7.626;2023-08-07T08:44:23;16.00;;;14.30;;
40781;SDS011;26493;51.938;7.626;2023-08-07T08:46:49;14.30;;;10.82;;
40781;SDS011;26493;51.938;7.626;2023-08-07T08:51:44;13.50;;;8.35;;
40781;SDS011;26493;51.938;7.626;2023-08-07T08:54:10;18.63;;;9.30;;
40781;SDS011;26493;51.938;7.626;2023-08-07T08:56:36;12.63;;;7.43;;
40781;SDS011;26493;51.938;7.626;2023-08-07T08:59:03;12.30;;;7.82;;
40781;SDS011;26493;51.938;7.626;2023-08-07T09:01:29;10.43;;;6.13;;
40781;SDS011;26493;51.938;7.626;2023-08-07T09:03:55;11.15;;;6.55;;
40781;SDS011;26493;51.938;7.626;2023-08-07T09:06:21;11.13;;;6.57;;
40781;SDS011;26493;51.938;7.626;2023-08-07T09:08:47;10.70;;;6.32;;
40781;SDS011;26493;51.938;7.626;2023-08-07T09:11:15;11.40;;;6.68;;
40781;SDS011;26493;51.938;7.626;2023-08-07T09:13:42;11.27;;;6.63;;
40781;SDS011;26493;51.938;7.626;2023-08-07T09:16:08;11.98;;;7.10;;
40781;SDS011;26493;51.938;7.626;2023-08-07T09:18:36;11.63;;;6.90;;
40781;SDS011;26493;51.938;7.626;2023-08-07T09:21:02;11.20;;;6.88;;
40781;SDS011;26493;51.938;7.626;2023-08-07T09:23:28;12.30;;;7.28;;
40781;SDS011;26493;51.938;7.626;2023-08-07T09:26:01;11.63;;;6.90;;
40781;SDS011;26493;51.938;7.626;2023-08-07T09:28:31;10.93;;;6.40;;
40781;SDS011;26493;51.938;7.626;2023-08-07T09:30:57;10.10;;;6.00;;
40781;SDS011;26493;51.938;7.626;2023-08-07T09:33:24;9.98;;;5.88;;
40781;SDS011;26493;51.938;7.626;2023-08-07T09:35:51;7.10;;;4.22;;
40781;SDS011;26493;51.938;7.626;2023-08-07T09:38:17;6.47;;;3.83;;
40781;SDS011;26493;51.938;7.626;2023-08-07T09:40:43;6.07;;;3.60;;
40781;SDS011;26493;51.938;7.626;2023-08-07T09:43:09;7.15;;;4.72;;
40781;SDS011;26493;51.938;7.626;2023-08-07T09:45:35;5.93;;;3.47;;
40781;SDS011;26493;51.938;7.626;2023-08-07T09:50:28;5.68;;;3.40;;
40781;SDS011;26493;51.938;7.626;2023-08-07T09:52:54;4.10;;;2.45;;
40781;SDS011;26493;51.938;7.626;2023-08-07T09:55:21;4.35;;;2.60;;
40781;SDS011;26493;51.938;7.626;2023-08-07T09:57:47;4.50;;;2.70;;
40781;SDS011;26493;51.938;7.626;2023-08-07T10:00:14;6.85;;;4.10;;
40781;SDS011;26493;51.938;7.626;2023-08-07T10:02:41;6.50;;;4.00;;
40781;SDS011;26493;51.938;7.626;2023-08-07T10:05:10;5.90;;;3.50;;
40781;SDS011;26493;51.938;7.626;2023-08-07T10:07:39;16.65;;;6.40;;
40781;SDS011;26493;51.938;7.626;2023-08-07T10:10:06;15.73;;;4.90;;
40781;SDS011;26493;51.938;7.626;2023-08-07T10:12:32;15.57;;;5.55;;
40781;SDS011;26493;51.938;7.626;2023-08-07T10:14:58;20.80;;;6.00;;
40781;SDS011;26493;51.938;7.626;2023-08-07T10:17:24;17.00;;;4.95;;
40781;SDS011;26493;51.938;7.626;2023-08-07T10:19:51;16.20;;;6.13;;
40781;SDS011;26493;51.938;7.626;2023-08-07T10:22:20;15.88;;;5.47;;
40781;SDS011;26493;51.938;7.626;2023-08-07T10:24:47;16.48;;;5.70;;
40781;SDS011;26493;51.938;7.626;2023-08-07T10:27:15;17.10;;;5.20;;
40781;SDS011;26493;51.938;7.626;2023-08-07T10:29:42;17.45;;;5.47;;
40781;SDS011;26493;51.938;7.626;2023-08-07T10:32:09;19.30;;;6.20;;
40781;SDS011;26493;51.938;7.626;2023-08-07T10:34:39;19.83;;;6.35;;
40781;SDS011;26493;51.938;7.626;2023-08-07T10:37:08;18.15;;;5.93;;
40781;SDS011;26493;51.938;7.626;2023-08-07T10:39:35;17.10;;;6.60;;
40781;SDS011;26493;51.938;7.626;2023-08-07T10:42:02;20.55;;;7.57;;
40781;SDS011;26493;51.938;7.626;2023-08-07T10:44:30;17.33;;;6.32;;
40781;SDS011;26493;51.938;7.626;2023-08-07T10:46:57;16.83;;;6.50;;
40781;SDS011;26493;51.938;7.626;2023-08-07T10:49:56;14.10;;;5.60;;
40781;SDS011;26493;51.938;7.626;2023-08-07T10:52:15;14.73;;;5.05;;
40781;SDS011;26493;51.938;7.626;2023-08-07T10:54:45;17.95;;;5.35;;
40781;SDS011;26493;51.938;7.626;2023-08-07T10:57:12;15.70;;;5.07;;
40781;SDS011;26493;51.938;7.626;2023-08-07T10:59:51;14.95;;;5.03;;
40781;SDS011;26493;51.938;7.626;2023-08-07T11:02:28;16.85;;;5.72;;
40781;SDS011;26493;51.938;7.626;2023-08-07T11:04:55;16.05;;;6.25;;
40781;SDS011;26493;51.938;7.626;2023-08-07T11:07:29;18.52;;;6.10;;
40781;SDS011;26493;51.938;7.626;2023-08-07T11:09:55;15.73;;;5.50;;
40781;SDS011;26493;51.938;7.626;2023-08-07T11:12:25;18.77;;;6.57;;
40781;SDS011;26493;51.938;7.626;2023-08-07T11:14:52;17.58;;;6.15;;
40781;SDS011;26493;51.938;7.626;2023-08-07T11:17:21;15.80;;;7.00;;
40781;SDS011;26493;51.938;7.626;2023-08-07T11:19:49;16.17;;;6.90;;
40781;SDS011;26493;51.938;7.626;2023-08-07T11:22:15;15.63;;;7.20;;
40781;SDS011;26493;51.938;7.626;2023-08-07T11:24:41;21.90;;;7.10;;
40781;SDS011;26493;51.938;7.626;2023-08-07T11:27:07;14.98;;;6.53;;
40781;SDS011;26493;51.938;7.626;2023-08-07T11:29:34;17.30;;;7.13;;
40781;SDS011;26493;51.938;7.626;2023-08-07T11:31:59;19.90;;;7.00;;
40781;SDS011;26493;51.938;7.626;2023-08-07T11:34:25;19.83;;;7.70;;
40781;SDS011;26493;51.938;7.626;2023-08-07T11:36:52;17.58;;;6.93;;
40781;SDS011;26493;51.938;7.626;2023-08-07T11:39:20;22.45;;;7.68;;
40781;SDS011;26493;51.938;7.626;2023-08-07T11:41:46;16.70;;;6.88;;
40781;SDS011;26493;51.938;7.626;2023-08-07T11:44:13;17.65;;;7.13;;
40781;SDS011;26493;51.938;7.626;2023-08-07T11:46:39;19.60;;;8.15;;
40781;SDS011;26493;51.938;7.626;2023-08-07T11:49:05;18.58;;;7.40;;
40781;SDS011;26493;51.938;7.626;2023-08-07T11:51:32;15.88;;;8.07;;
40781;SDS011;26493;51.938;7.626;2023-08-07T11:53:58;15.55;;;8.30;;
40781;SDS011;26493;51.938;7.626;2023-08-07T11:56:25;17.40;;;8.43;;
40781;SDS011;26493;51.938;7.626;2023-08-07T11:58:52;18.27;;;8.25;;
40781;SDS011;26493;51.938;7.626;2023-08-07T12:01:19;15.05;;;8.02;;
40781;SDS011;26493;51.938;7.626;2023-08-07T12:03:55;17.52;;;8.90;;
40781;SDS011;26493;51.938;7.626;2023-08-07T12:06:22;17.55;;;8.70;;
40781;SDS011;26493;51.938;7.626;2023-08-07T12:08:48;14.98;;;8.05;;
40781;SDS011;26493;51.938;7.626;2023-08-07T12:11:16;18.15;;;8.90;;
40781;SDS011;26493;51.938;7.626;2023-08-07T12:13:43;17.10;;;8.35;;
40781;SDS011;26493;51.938;7.626;2023-08-07T12:16:10;15.88;;;7.95;;
40781;SDS011;26493;51.938;7.626;2023-08-07T12:18:50;15.75;;;8.63;;
40781;SDS011;26493;51.938;7.626;2023-08-07T12:21:17;17.20;;;8.90;;
40781;SDS011;26493;51.938;7.626;2023-08-07T12:23:48;18.35;;;8.48;;
40781;SDS011;26493;51.938;7.626;2023-08-07T12:26:15;16.83;;;8.30;;
40781;SDS011;26493;51.938;7.626;2023-08-07T12:28:41;15.65;;;8.20;;
40781;SDS011;26493;51.938;7.626;2023-08-07T12:31:07;19.70;;;9.07;;
40781;SDS011;26493;51.938;7.626;2023-08-07T12:33:33;17.85;;;9.55;;
40781;SDS011;26493;51.938;7.626;2023-08-07T12:36:00;17.73;;;9.07;;
40781;SDS011;26493;51.938;7.626;2023-08-07T12:38:27;18.58;;;9.13;;
40781;SDS011;26493;51.938;7.626;2023-08-07T12:40:53;16.83;;;8.43;;
40781;SDS011;26493;51.938;7.626;2023-08-07T12:43:19;20.77;;;8.48;;
40781;SDS011;26493;51.938;7.626;2023-08-07T12:45:45;17.33;;;9.48;;
40781;SDS011;26493;51.938;7.626;2023-08-07T12:48:11;19.80;;;9.85;;
40781;SDS011;26493;51.938;7.626;2023-08-07T12:50:38;19.70;;;9.77;;
40781;SDS011;26493;51.938;7.626;2023-08-07T12:53:05;18.27;;;9.60;;
40781;SDS011;26493;51.938;7.626;2023-08-07T12:55:31;16.73;;;8.85;;
40781;SDS011;26493;51.938;7.626;2023-08-07T12:57:57;22.60;;;10.43;;
40781;SDS011;26493;51.938;7.626;2023-08-07T13:00:23;15.35;;;9.35;;
40781;SDS011;26493;51.938;7.626;2023-08-07T13:02:50;17.58;;;9.70;;
40781;SDS011;26493;51.938;7.626;2023-08-07T13:05:17;18.73;;;9.93;;
40781;SDS011;26493;51.938;7.626;2023-08-07T13:07:44;16.98;;;9.50;;
40781;SDS011;26493;51.938;7.626;2023-08-07T13:10:11;16.17;;;8.88;;
40781;SDS011;26493;51.938;7.626;2023-08-07T13:12:41;17.60;;;9.27;;
40781;SDS011;26493;51.938;7.626;2023-08-07T13:15:07;17.73;;;10.05;;
40781;SDS011;26493;51.938;7.626;2023-08-07T13:17:34;15.88;;;10.10;;
40781;SDS011;26493;51.938;7.626;2023-08-07T13:20:01;16.30;;;9.77;;
40781;SDS011;26493;51.938;7.626;2023-08-07T13:22:29;17.15;;;9.27;;
40781;SDS011;26493;51.938;7.626;2023-08-07T13:24:55;17.38;;;9.38;;
40781;SDS011;26493;51.938;7.626;2023-08-07T13:27:21;17.70;;;9.82;;
40781;SDS011;26493;51.938;7.626;2023-08-07T13:29:47;16.50;;;9.90;;
40781;SDS011;26493;51.938;7.626;2023-08-07T13:32:13;18.42;;;10.35;;
40781;SDS011;26493;51.938;7.626;2023-08-07T13:34:39;15.68;;;9.30;;
40781;SDS011;26493;51.938;7.626;2023-08-07T13:37:06;17.70;;;9.68;;
40781;SDS011;26493;51.938;7.626;2023-08-07T13:39:32;19.60;;;11.10;;
40781;SDS011;26493;51.938;7.626;2023-08-07T13:41:58;17.10;;;10.30;;
40781;SDS011;26493;51.938;7.626;2023-08-07T13:44:27;17.25;;;9.93;;
40781;SDS011;26493;51.938;7.626;2023-08-07T13:46:54;18.23;;;9.75;;
40781;SDS011;26493;51.938;7.626;2023-08-07T13:49:21;17.42;;;10.60;;
40781;SDS011;26493;51.938;7.626;2023-08-07T13:51:48;15.80;;;9.95;;
40781;SDS011;26493;51.938;7.626;2023-08-07T13:54:14;17.35;;;9.48;;
40781;SDS011;26493;51.938;7.626;2023-08-07T13:56:40;17.05;;;9.52;;
40781;SDS011;26493;51.938;7.626;2023-08-07T13:59:06;18.77;;;10.02;;
40781;SDS011;26493;51.938;7.626;2023-08-07T14:01:33;15.98;;;10.05;;
40781;SDS011;26493;51.938;7.626;2023-08-07T14:04:00;17.05;;;10.40;;
40781;SDS011;26493;51.938;7.626;2023-08-07T14:06:26;16.70;;;9.93;;
40781;SDS011;26493;51.938;7.626;2023-08-07T14:08:52;16.63;;;9.68;;
40781;SDS011;26493;51.938;7.626;2023-08-07T14:11:18;18.10;;;10.07;;
40781;SDS011;26493;51.938;7.626;2023-08-07T14:13:45;18.75;;;10.50;;
40781;SDS011;26493;51.938;7.626;2023-08-07T14:16:12;16.75;;;9.85;;
40781;SDS011;26493;51.938;7.626;2023-08-07T14:18:38;16.13;;;10.00;;
40781;SDS011;26493;51.938;7.626;2023-08-07T14:21:04;15.85;;;9.93;;
40781;SDS011;26493;51.938;7.626;2023-08-07T14:23:30;17.00;;;10.43;;
40781;SDS011;26493;51.938;7.626;2023-08-07T14:25:56;16.50;;;9.95;;
40781;SDS011;26493;51.938;7.626;2023-08-07T14:28:22;15.60;;;10.30;;
40781;SDS011;26493;51.938;7.626;2023-08-07T14:30:48;17.52;;;11.18;;
40781;SDS011;26493;51.938;7.626;2023-08-07T14:33:15;16.05;;;10.00;;
40781;SDS011;26493;51.938;7.626;2023-08-07T14:35:42;17.90;;;11.18;;
40781;SDS011;26493;51.938;7.626;2023-08-07T14:38:08;20.70;;;11.48;;
40781;SDS011;26493;51.938;7.626;2023-08-07T14:40:34;17.88;;;11.10;;
40781;SDS011;26493;51.938;7.626;2023-08-07T14:43:04;16.40;;;10.95;;
40781;SDS011;26493;51.938;7.626;2023-08-07T14:45:30;16.83;;;10.95;;
40781;SDS011;26493;51.938;7.626;2023-08-07T14:47:56;15.77;;;10.48;;
40781;SDS011;26493;51.938;7.626;2023-08-07T14:50:22;17.58;;;10.60;;